Main page
METAR-TAF:

METAR-TAF

Airports :

Xi'an, China

Xi'an Xianyang International Airport

latitude: 34-26N, longitude: 108-45E, elevation: 479 m

Current weather observation

The report was made 1 hour and 11 minutes ago, at 08:00 UTC
Wind 4 kt from the Northeast, varying between West/Northwest and East
Temperature 26°C
Humidity 54%
Pressure 1010 hPa
Visibility: 6000 m

METAR: ZLXY 230800Z 04002MPS 300V100 6000 NSC 26/16 Q1010 NOSIG

Time: 17:11 (09:11 UTC)

Forecast

The report was made 6 hours and 2 minutes ago, at 03:09 UTC
Forecast valid from 23 at 06 UTC to 24 at 06 UTC
Wind 6 kt from the East/Northeast
Visibility: 3000 m
haze
Becoming
from 24 at 03 UTC to 24 at 04 UTC
Visibility: 2700 m
light rain, mist

TAF: ZLXY 230309Z 2306/2406 06003MPS 3000 HZ NSC TX27/2307Z TN17/2322Z BECMG 2403/2404 2700 -RA BR

Weather observations and forecasts of more than 4000 airports (METAR and TAF reports).

The available stations are represented by yellow and red dots on the map.

Hover mouse over dot to see the name of the station.

Then click to see weather observations and forecasts.

To change the map : click on the green buttons with a black cross to zoom in, on the green button with a dash to zoom out, or on the green arrows for adjacent maps.


METAR-TAF: